Terminal Aerodrome Forecast
Issued by NWS Cleveland, OH

Home | Current Version | Previous Version | Graphics & Text | Print | Product List | Glossary Off
Versions: 1 2 3 4 5 6 7 8 9 10 11 12 13 14 15 16 17

000
FTUS41 KCLE 252300 AAA
TAFERI
TAF AMD
KERI 252306Z 2523/2618 23008KT P6SM OVC025
      TEMPO 2523/2602 6SM -DZ OVC018
     FM261600 05005KT P6SM SCT025 OVC040=

USA.gov is the U.S. government's official web portal to all federal, state and local government web resources and services.